Time;durP1;ratioP1;P1;durP2;ratioP2;P2;SDS_P1;SDS_P2;PMS_P1;PMS_P2;Temp;Humidity;BMP_temperature;BMP_pressure;BME280_temperature;BME280_humidity;BME280_pressure;Samples;Min_cycle;Max_cycle;Signal;HPM_P1;HPM_P2
2021/04/22 00:01:57;;;;;;;9.60;3.70;;;;;;;4.51;54.37;100952.72;10192308;28;20881;-75
2021/04/22 00:07:00;;;;;;;9.32;3.10;;;;;;;4.59;53.75;100954.06;10197327;28;20236;-75
2021/04/22 00:12:02;;;;;;;11.65;3.50;;;;;;;4.54;54.87;100955.22;10195640;28;20245;-75
2021/04/22 00:17:07;;;;;;;12.70;3.92;;;;;;;4.28;55.38;100953.75;10220731;28;20258;-72
2021/04/22 00:22:10;;;;;;;15.10;3.58;;;;;;;4.45;56.15;100953.88;10234536;28;20268;-75
2021/04/22 00:27:12;;;;;;;10.45;3.25;;;;;;;4.44;54.57;100944.13;10209307;28;20242;-74
2021/04/22 00:32:15;;;;;;;14.75;3.92;;;;;;;4.23;56.02;100955.78;10196579;28;20656;-75
2021/04/22 00:37:18;;;;;;;9.93;3.33;;;;;;;4.51;55.65;100955.38;10197421;28;20302;-76
2021/04/22 00:42:20;;;;;;;13.27;3.70;;;;;;;4.36;55.81;100955.16;10196123;28;20242;-73
2021/04/22 00:47:23;;;;;;;9.32;3.10;;;;;;;4.26;56.04;100963.63;10180458;28;20352;-75
2021/04/22 00:52:26;;;;;;;11.80;3.75;;;;;;;4.19;55.61;100971.00;10195029;28;20316;-74
2021/04/22 00:57:28;;;;;;;9.68;3.25;;;;;;;4.23;55.66;100974.41;10195144;28;20243;-74
2021/04/22 01:02:30;;;;;;;13.90;3.47;;;;;;;4.07;57.82;100977.75;10195005;28;20248;-75
2021/04/22 01:07:34;;;;;;;14.30;3.55;;;;;;;4.00;56.02;100983.38;10192615;28;20769;-76
2021/04/22 01:12:36;;;;;;;11.77;3.83;;;;;;;4.29;56.52;100988.28;10191399;28;20245;-75
2021/04/22 01:17:38;;;;;;;14.93;4.03;;;;;;;4.52;56.75;100979.22;10227816;28;20251;-75
2021/04/22 01:22:41;;;;;;;13.82;4.28;;;;;;;4.18;56.21;100990.56;10233331;28;20733;-74
2021/04/22 01:27:44;;;;;;;13.40;3.83;;;;;;;4.13;57.08;100980.13;10218687;28;20247;-75
2021/04/22 01:32:46;;;;;;;15.93;3.80;;;;;;;4.29;57.10;100982.94;10236579;28;20241;-72
2021/04/22 01:37:49;;;;;;;13.38;4.05;;;;;;;4.36;56.45;100984.41;10231694;28;20234;-72
2021/04/22 01:42:51;;;;;;;14.95;3.67;;;;;;;4.56;55.59;100986.16;10233512;28;20234;-75
2021/04/22 01:47:54;;;;;;;10.10;3.70;;;;;;;4.71;54.66;100991.69;10232602;28;20233;-73
2021/04/22 01:52:59;;;;;;;12.15;4.10;;;;;;;4.54;54.66;100990.69;10231663;28;20720;-75
2021/04/22 01:58:01;;;;;;;11.43;3.30;;;;;;;4.47;55.59;100991.03;10231936;28;20259;-75
2021/04/22 02:03:04;;;;;;;10.30;3.97;;;;;;;4.23;56.03;100991.22;10234153;28;20247;-74
2021/04/22 02:08:09;;;;;;;9.63;3.50;;;;;;;4.57;56.08;100985.19;10237261;28;20238;-75
2021/04/22 02:13:14;;;;;;;12.70;3.88;;;;;;;4.55;55.59;100988.88;10233703;28;20954;-75
2021/04/22 02:18:16;;;;;;;13.80;4.30;;;;;;;4.47;55.62;100994.56;10152223;28;20242;-74
2021/04/22 02:23:20;;;;;;;14.93;3.73;;;;;;;4.49;54.68;100999.81;10149594;28;20231;-75
2021/04/22 02:28:22;;;;;;;10.48;3.72;;;;;;;4.24;54.89;100992.94;10155219;28;21412;-75
2021/04/22 02:33:24;;;;;;;7.22;3.65;;;;;;;4.48;54.01;100993.63;10155601;28;20242;-74
2021/04/22 02:38:28;;;;;;;9.40;3.75;;;;;;;4.41;54.18;101005.47;10151702;28;20239;-74
2021/04/22 02:43:30;;;;;;;12.77;4.20;;;;;;;4.57;54.19;100997.66;10153506;28;20255;-74
2021/04/22 02:48:32;;;;;;;10.25;3.78;;;;;;;4.40;54.54;100999.28;10159739;28;20240;-74
2021/04/22 02:53:35;;;;;;;12.27;3.88;;;;;;;4.45;55.23;101007.06;10149546;28;20625;-75
2021/04/22 02:58:36;;;;;;;8.77;3.60;;;;;;;4.63;54.06;101002.69;10149491;28;20238;-75
2021/04/22 03:03:38;;;;;;;13.85;4.28;;;;;;;4.56;54.04;101006.59;10146387;28;20497;-74
2021/04/22 03:08:41;;;;;;;8.35;4.03;;;;;;;4.75;53.87;101012.78;10148773;28;20253;-74
2021/04/22 03:13:44;;;;;;;9.63;3.47;;;;;;;4.47;53.84;101010.53;10156910;28;21536;-74
2021/04/22 03:18:46;;;;;;;9.13;3.38;;;;;;;4.62;53.39;101014.28;10223682;28;20605;-74
2021/04/22 03:23:50;;;;;;;12.18;4.03;;;;;;;4.31;54.67;101021.00;10226674;28;20281;-74
2021/04/22 03:28:52;;;;;;;11.65;3.50;;;;;;;4.17;54.28;101015.44;10227187;28;20258;-75
2021/04/22 03:33:54;;;;;;;13.73;3.75;;;;;;;4.24;54.85;101014.22;10224733;28;20725;-74
2021/04/22 03:38:57;;;;;;;9.53;3.40;;;;;;;4.20;54.15;101020.63;10226859;28;20261;-74
2021/04/22 03:43:59;;;;;;;11.77;3.83;;;;;;;4.49;54.35;101021.94;10226356;28;20242;-74
2021/04/22 03:49:01;;;;;;;13.45;4.18;;;;;;;4.32;54.87;101020.06;10227540;28;20629;-75
2021/04/22 03:54:05;;;;;;;10.63;3.90;;;;;;;4.65;54.18;101018.59;10235577;28;20607;-74
2021/04/22 03:59:07;;;;;;;9.40;3.53;;;;;;;4.60;53.29;101027.63;10235022;28;20249;-74
2021/04/22 04:04:09;;;;;;;12.02;3.25;;;;;;;4.45;53.90;101022.19;10234692;28;21364;-74
2021/04/22 04:09:12;;;;;;;11.55;3.63;;;;;;;4.73;53.14;101019.09;10235544;28;20727;-74
2021/04/22 04:14:14;;;;;;;13.70;3.47;;;;;;;4.68;52.33;101026.44;10220297;28;20246;-74
2021/04/22 04:19:16;;;;;;;13.50;3.20;;;;;;;4.94;52.25;101020.75;10188262;28;20257;-74
2021/04/22 04:24:19;;;;;;;8.93;3.60;;;;;;;4.74;52.96;101016.34;10184558;28;20238;-74
2021/04/22 04:29:21;;;;;;;10.77;4.18;;;;;;;4.52;54.85;101024.47;10184128;28;20764;-74
2021/04/22 04:34:23;;;;;;;10.05;4.35;;;;;;;4.48;54.65;101020.22;10182574;28;20235;-73
2021/04/22 04:39:26;;;;;;;13.75;3.80;;;;;;;4.50;54.25;101023.69;10164483;28;20253;-74
2021/04/22 04:44:28;;;;;;;12.38;3.78;;;;;;;4.74;53.93;101024.34;10181262;28;20252;-75
2021/04/22 04:49:30;;;;;;;13.07;4.13;;;;;;;4.87;54.35;101035.28;10183903;28;20250;-74
2021/04/22 04:54:32;;;;;;;10.90;3.78;;;;;;;4.81;54.09;101033.78;10181698;28;20243;-74
2021/04/22 04:59:34;;;;;;;10.60;3.67;;;;;;;4.46;54.70;101038.06;10179892;28;20238;-75
2021/04/22 05:04:36;;;;;;;7.30;3.67;;;;;;;4.65;54.40;101046.06;10186358;28;20905;-74
2021/04/22 05:09:39;;;;;;;11.68;3.97;;;;;;;4.83;53.97;101061.19;10187699;28;20744;-74
2021/04/22 05:14:41;;;;;;;10.77;3.55;;;;;;;4.88;54.23;101058.28;10197276;28;20231;-75
2021/04/22 05:19:44;;;;;;;18.15;4.13;;;;;;;4.54;54.78;101064.31;10225904;28;20242;-75
2021/04/22 05:24:47;;;;;;;5.38;3.05;;;;;;;4.93;53.95;101064.28;10223922;28;20260;-73
2021/04/22 05:29:49;;;;;;;10.38;3.28;;;;;;;5.14;54.25;101075.75;10226214;28;20254;-74
2021/04/22 05:34:51;;;;;;;7.30;3.53;;;;;;;5.37;53.54;101081.78;10222282;28;20230;-74
2021/04/22 05:39:54;;;;;;;12.20;3.53;;;;;;;5.62;53.34;101087.66;10223082;28;20245;-74
2021/04/22 05:44:56;;;;;;;9.23;3.65;;;;;;;5.76;53.24;101094.09;10226120;28;20247;-74
2021/04/22 05:49:57;;;;;;;11.73;4.43;;;;;;;6.04;52.89;101093.59;10223847;28;20259;-74
2021/04/22 05:55:00;;;;;;;14.45;3.13;;;;;;;5.91;52.82;101088.00;10227994;28;20234;-74
2021/04/22 06:00:05;;;;;;;7.30;2.97;;;;;;;5.64;54.38;101107.09;10221148;28;20245;-75
2021/04/22 06:05:09;;;;;;;8.60;3.70;;;;;;;5.53;54.69;101103.22;10222386;28;20325;-74
2021/04/22 06:10:14;;;;;;;13.50;4.15;;;;;;;5.80;53.84;101112.53;10219759;28;20261;-74
2021/04/22 06:15:17;;;;;;;9.95;3.75;;;;;;;6.21;54.10;101122.06;10201440;28;20433;-74
2021/04/22 06:20:21;;;;;;;16.55;4.22;;;;;;;6.10;52.68;101114.63;10179057;28;20236;-74
2021/04/22 06:25:24;;;;;;;8.57;3.65;;;;;;;5.71;54.29;101118.34;10180186;28;20354;-75
2021/04/22 06:30:28;;;;;;;14.27;4.13;;;;;;;6.33;53.17;101132.09;10169489;28;20246;-74
2021/04/22 06:35:30;;;;;;;10.73;4.00;;;;;;;5.91;53.14;101128.88;10181287;28;20245;-74
2021/04/22 06:40:33;;;;;;;10.43;4.10;;;;;;;5.67;54.38;101128.25;10180886;28;21422;-74
2021/04/22 06:45:42;;;;;;;11.73;3.40;;;;;;;6.59;50.97;101125.44;10181856;28;20239;-75
2021/04/22 06:50:45;;;;;;;9.88;3.33;;;;;;;6.53;50.12;101134.63;10198851;28;20280;-76
2021/04/22 06:55:47;;;;;;;6.93;3.53;;;;;;;7.03;48.94;101130.22;10153163;28;20232;-75
2021/04/22 07:00:49;;;;;;;5.63;3.78;;;;;;;7.53;48.74;101129.22;10141009;28;20263;-75
2021/04/22 07:05:51;;;;;;;7.75;3.10;;;;;;;7.76;46.93;101145.78;10144775;28;20238;-75
2021/04/22 07:10:54;;;;;;;9.38;3.30;;;;;;;7.88;46.37;101159.31;10122378;28;20250;-75
2021/04/22 07:15:56;;;;;;;12.35;3.30;;;;;;;7.61;46.83;101147.53;10181380;28;20280;-75
2021/04/22 07:20:59;;;;;;;7.15;2.90;;;;;;;7.48;47.17;101152.69;10214845;28;21000;-75
2021/04/22 07:26:03;;;;;;;11.55;3.67;;;;;;;7.55;45.92;101156.75;10217395;28;20268;-74
2021/04/22 07:31:09;;;;;;;7.35;2.80;;;;;;;7.97;45.48;101157.06;10193993;28;20250;-76
2021/04/22 07:36:11;;;;;;;10.23;3.55;;;;;;;8.35;43.54;101170.88;10164615;28;20282;-76
2021/04/22 07:41:14;;;;;;;8.90;3.17;;;;;;;8.38;43.82;101173.38;10161680;28;20810;-75
2021/04/22 07:46:16;;;;;;;11.13;3.83;;;;;;;8.74;42.76;101159.59;10173760;28;20278;-74
2021/04/22 07:51:18;;;;;;;6.00;2.65;;;;;;;9.38;42.93;101169.94;10187620;28;20242;-75
2021/04/22 07:56:21;;;;;;;12.50;3.63;;;;;;;9.28;42.76;101169.69;10168153;28;20593;-73
2021/04/22 08:01:24;;;;;;;12.65;3.53;;;;;;;8.83;43.15;101174.25;10187102;28;20247;-76
2021/04/22 08:06:26;;;;;;;11.32;3.15;;;;;;;8.61;43.93;101172.00;10161072;28;20237;-73
2021/04/22 08:11:29;;;;;;;10.13;2.67;;;;;;;8.54;44.49;101176.03;10148662;28;20575;-75
2021/04/22 08:16:31;;;;;;;15.73;4.30;;;;;;;8.38;45.58;101178.72;10183565;28;20274;-75
2021/04/22 08:21:34;;;;;;;7.60;3.25;;;;;;;9.28;43.24;101192.00;10158000;28;20254;-74
2021/04/22 08:26:36;;;;;;;9.52;3.50;;;;;;;9.68;42.56;101184.09;10168007;28;20249;-75
2021/04/22 08:31:39;;;;;;;6.28;3.22;;;;;;;9.71;42.24;101189.25;10173180;28;20299;-76
2021/04/22 08:36:41;;;;;;;9.77;3.28;;;;;;;9.79;43.65;101199.50;10159207;28;20250;-74
2021/04/22 08:41:44;;;;;;;12.68;3.10;;;;;;;10.01;41.57;101199.00;10171184;28;20242;-74
2021/04/22 08:46:46;;;;;;;13.38;3.80;;;;;;;10.36;40.66;101199.31;10176378;28;20242;-75
2021/04/22 08:51:49;;;;;;;12.30;3.20;;;;;;;9.56;42.78;101198.28;10196626;28;20248;-75
2021/04/22 08:56:52;;;;;;;11.30;4.07;;;;;;;9.18;44.09;101200.69;10195907;28;20722;-75
2021/04/22 09:01:54;;;;;;;12.75;3.80;;;;;;;9.09;43.45;101202.13;10163829;28;20235;-75
2021/04/22 09:06:57;;;;;;;8.85;3.08;;;;;;;9.09;43.04;101207.50;10170707;28;20235;-74
2021/04/22 09:12:00;;;;;;;8.43;2.97;;;;;;;10.21;39.94;101200.34;10158239;28;20241;-75
2021/04/22 09:17:02;;;;;;;7.70;3.08;;;;;;;9.80;39.55;101206.59;10173614;28;20246;-75
2021/04/22 09:22:04;;;;;;;14.50;3.50;;;;;;;11.85;37.61;101221.19;10166491;28;20340;-75
2021/04/22 09:27:11;;;;;;;11.68;3.60;;;;;;;12.25;36.02;101202.03;10161798;28;21423;-76
2021/04/22 09:32:16;;;;;;;8.70;3.08;;;;;;;12.53;34.90;101208.06;10182873;28;20240;-76
2021/04/22 09:37:22;;;;;;;11.65;3.50;;;;;;;11.77;35.97;101211.94;10197782;28;21042;-76
2021/04/22 09:42:26;;;;;;;9.77;3.75;;;;;;;11.15;37.99;101208.25;10197468;28;20270;-76
2021/04/22 09:47:28;;;;;;;9.55;3.50;;;;;;;12.16;36.75;101206.28;10194889;28;20251;-75
2021/04/22 09:52:32;;;;;;;10.10;3.80;;;;;;;12.03;35.83;101188.47;10197492;28;20231;-75
2021/04/22 09:57:35;;;;;;;7.20;3.55;;;;;;;12.74;34.78;101192.09;10197128;28;20246;-73
2021/04/22 10:02:43;;;;;;;6.50;3.35;;;;;;;13.78;33.07;101204.53;10196723;28;20234;-75
2021/04/22 10:07:45;;;;;;;10.43;3.70;;;;;;;13.07;34.97;101193.13;10189999;28;20992;-75
2021/04/22 10:12:49;;;;;;;8.45;3.25;;;;;;;12.50;34.89;101201.06;10159325;28;20235;-76
2021/04/22 10:17:53;;;;;;;6.63;3.90;;;;;;;11.95;36.46;101210.56;10200713;28;20245;-76
2021/04/22 10:22:56;;;;;;;11.18;3.92;;;;;;;10.37;39.74;101209.09;10230560;28;20230;-76
2021/04/22 10:28:03;;;;;;;11.55;3.95;;;;;;;10.94;40.91;101212.41;10242674;28;20240;-76
2021/04/22 10:33:07;;;;;;;11.93;4.18;;;;;;;12.23;37.13;101208.50;10242437;28;20257;-73
2021/04/22 10:38:10;;;;;;;5.28;4.00;;;;;;;12.02;37.65;101211.84;10247789;28;20249;-75
2021/04/22 10:43:17;;;;;;;10.05;3.75;;;;;;;11.36;38.44;101215.78;10240127;28;20636;-75
2021/04/22 10:48:19;;;;;;;9.45;3.50;;;;;;;10.65;39.40;101209.06;10241576;28;20253;-74
2021/04/22 10:53:23;;;;;;;10.20;3.95;;;;;;;12.56;37.13;101197.03;10244549;28;20297;-75
2021/04/22 10:58:28;;;;;;;11.77;3.85;;;;;;;13.47;34.51;101191.69;10244457;28;20250;-75
2021/04/22 11:03:33;;;;;;;11.35;3.90;;;;;;;12.02;36.43;101190.31;10247542;28;20241;-75
2021/04/22 11:08:38;;;;;;;7.75;4.03;;;;;;;12.50;34.99;101206.47;10245899;28;20243;-75
2021/04/22 11:13:42;;;;;;;10.43;4.22;;;;;;;12.43;35.61;101189.06;10241452;28;20292;-75
2021/04/22 11:18:46;;;;;;;11.68;3.60;;;;;;;14.07;32.39;101186.81;10199769;28;20241;-75
2021/04/22 11:23:49;;;;;;;9.45;3.63;;;;;;;13.60;32.73;101191.56;10200752;28;20246;-75
2021/04/22 11:28:54;;;;;;;6.53;3.15;;;;;;;15.08;29.87;101179.16;10200079;28;20269;-74
2021/04/22 11:34:06;;;;;;;8.80;4.55;;;;;;;13.39;32.69;101191.44;10199013;28;20732;-76
2021/04/22 11:39:08;;;;;;;6.05;3.58;;;;;;;12.78;34.81;101204.34;10157609;28;20266;-74
2021/04/22 11:44:12;;;;;;;9.80;4.07;;;;;;;13.42;33.65;101201.16;10155739;28;20223;-75
2021/04/22 11:49:25;;;;;;;11.57;4.15;;;;;;;11.95;36.14;101199.81;10159289;28;20250;-75
2021/04/22 11:54:30;;;;;;;8.80;4.05;;;;;;;12.73;34.45;101201.16;10162837;28;20250;-75
2021/04/22 11:59:35;;;;;;;8.82;3.53;;;;;;;14.44;32.80;101212.63;10162103;28;20239;-75
2021/04/22 12:04:42;;;;;;;9.98;3.60;;;;;;;14.20;31.15;101210.09;10160315;28;20235;-75
2021/04/22 12:09:48;;;;;;;12.00;4.18;;;;;;;15.24;30.35;101190.34;10171424;28;20242;-75
2021/04/22 12:14:54;;;;;;;11.02;3.60;;;;;;;15.56;30.62;101189.38;10170916;28;20285;-75
2021/04/22 12:19:58;;;;;;;10.25;3.97;;;;;;;13.65;33.30;101197.44;10186518;28;20415;-75
2021/04/22 12:25:01;;;;;;;6.45;3.42;;;;;;;15.30;30.88;101205.19;10187541;28;20243;-74
2021/04/22 12:30:19;;;;;;;7.15;3.00;;;;;;;17.25;28.26;101199.84;10183941;28;20763;-75
2021/04/22 12:35:23;;;;;;;6.32;3.00;;;;;;;19.70;24.89;101192.25;10187830;28;20237;-75
2021/04/22 12:40:26;;;;;;;6.82;2.72;;;;;;;19.55;25.03;101189.22;10185660;28;20273;-75
2021/04/22 12:45:29;;;;;;;7.25;3.25;;;;;;;18.04;26.75;101197.59;10185705;28;20623;-74
2021/04/22 12:50:39;;;;;;;6.03;3.15;;;;;;;16.57;28.53;101180.13;10187806;28;20281;-75
2021/04/22 12:55:46;;;;;;;5.07;3.15;;;;;;;15.89;29.38;101178.19;10193306;28;20335;-75
2021/04/22 13:00:51;;;;;;;6.65;3.80;;;;;;;15.46;30.76;101178.50;10192984;28;20348;-73
2021/04/22 13:05:57;;;;;;;8.05;3.05;;;;;;;16.60;27.92;101177.13;10193285;28;20254;-75
2021/04/22 13:11:02;;;;;;;8.02;3.40;;;;;;;16.80;29.08;101165.22;10194004;28;20347;-73
2021/04/22 13:16:09;;;;;;;6.95;3.22;;;;;;;17.88;27.02;101165.63;10170889;28;20253;-74
2021/04/22 13:21:16;;;;;;;4.53;3.63;;;;;;;16.73;28.19;101163.22;10191014;28;21572;-75
2021/04/22 13:26:22;;;;;;;9.43;3.30;;;;;;;16.59;28.97;101162.72;10185224;28;20638;-74
2021/04/22 13:31:27;;;;;;;6.28;3.33;;;;;;;16.65;30.26;101161.28;10184280;28;20237;-75
2021/04/22 13:36:29;;;;;;;7.13;3.67;;;;;;;15.81;29.44;101166.34;10184051;28;20239;-75
2021/04/22 13:41:31;;;;;;;6.78;3.30;;;;;;;16.22;30.28;101161.69;10184443;28;20241;-74
2021/04/22 13:46:34;;;;;;;8.20;3.13;;;;;;;18.81;27.77;101168.91;10182949;28;20275;-74
2021/04/22 13:51:36;;;;;;;8.45;2.63;;;;;;;18.99;27.03;101163.41;10185749;28;20337;-74
2021/04/22 13:56:40;;;;;;;6.35;3.15;;;;;;;18.10;28.00;101167.97;10190820;28;20287;-74
2021/04/22 14:01:43;;;;;;;8.45;2.80;;;;;;;16.73;28.65;101166.81;10193756;28;20241;-72
2021/04/22 14:06:49;;;;;;;5.38;2.80;;;;;;;16.57;29.66;101180.97;10157106;28;20235;-74
2021/04/22 14:11:52;;;;;;;6.55;3.58;;;;;;;16.92;27.40;101179.50;10163744;28;20232;-74
2021/04/22 14:16:55;;;;;;;5.28;3.22;;;;;;;15.12;30.64;101183.31;10189911;28;20238;-74
2021/04/22 14:21:58;;;;;;;5.43;2.97;;;;;;;13.33;32.47;101172.16;10188224;28;20231;-74
2021/04/22 14:27:00;;;;;;;5.43;2.95;;;;;;;13.88;32.68;101173.13;10177653;28;20245;-74
2021/04/22 14:32:04;;;;;;;7.05;3.13;;;;;;;14.50;31.29;101171.53;10190792;28;20256;-75
2021/04/22 14:37:06;;;;;;;7.18;3.35;;;;;;;14.34;31.64;101174.66;10196547;28;20253;-76
2021/04/22 14:42:09;;;;;;;5.38;3.15;;;;;;;16.10;30.68;101171.81;10192292;28;20234;-74
2021/04/22 14:47:12;;;;;;;6.07;2.92;;;;;;;16.39;28.90;101171.84;10189054;28;20281;-72
2021/04/22 14:52:15;;;;;;;7.50;3.28;;;;;;;14.67;31.02;101181.75;10188559;28;21534;-75
2021/04/22 14:57:18;;;;;;;7.55;3.28;;;;;;;14.05;32.60;101185.22;10187468;28;20247;-75
2021/04/22 15:02:22;;;;;;;6.72;3.40;;;;;;;13.58;33.93;101198.06;10175241;28;20251;-74
2021/04/22 15:07:26;;;;;;;5.47;2.92;;;;;;;15.66;30.76;101184.84;10168133;28;20394;-73
2021/04/22 15:12:30;;;;;;;6.03;3.03;;;;;;;17.54;28.29;101182.56;10178948;28;20261;-75
2021/04/22 15:17:34;;;;;;;9.90;3.00;;;;;;;17.43;27.41;101182.75;10158376;28;20235;-75
2021/04/22 15:22:37;;;;;;;5.65;2.65;;;;;;;18.75;27.89;101194.00;10166891;28;20233;-75
2021/04/22 15:27:46;;;;;;;5.82;3.00;;;;;;;19.27;27.26;101185.03;10166170;28;20251;-75
2021/04/22 15:32:50;;;;;;;7.22;3.65;;;;;;;18.96;26.39;101194.53;10167670;28;21710;-73
2021/04/22 15:37:55;;;;;;;5.18;2.97;;;;;;;18.21;26.68;101185.03;10164477;28;20252;-75
2021/04/22 15:42:59;;;;;;;6.80;3.67;;;;;;;18.06;27.10;101185.56;10164601;28;20242;-74
2021/04/22 15:48:03;;;;;;;8.05;3.13;;;;;;;16.58;28.13;101206.22;10124174;28;20279;-74
2021/04/22 15:53:06;;;;;;;7.15;2.92;;;;;;;15.79;30.37;101198.13;10124158;28;20239;-74
2021/04/22 15:58:10;;;;;;;9.90;3.90;;;;;;;16.30;29.62;101191.69;10121295;28;20251;-74
2021/04/22 16:03:16;;;;;;;5.30;3.10;;;;;;;15.38;30.86;101190.00;10130873;28;20255;-75
2021/04/22 16:08:18;;;;;;;8.85;3.38;;;;;;;15.36;30.01;101183.00;10116179;28;20845;-74
2021/04/22 16:13:21;;;;;;;7.13;2.65;;;;;;;15.61;29.54;101196.09;10108230;28;20732;-75
2021/04/22 16:18:24;;;;;;;6.38;3.13;;;;;;;15.87;29.56;101192.88;10184586;28;20335;-75
2021/04/22 16:23:27;;;;;;;5.13;2.78;;;;;;;16.34;29.60;101199.38;10186814;28;20238;-74
2021/04/22 16:28:29;;;;;;;7.88;3.22;;;;;;;17.19;29.06;101207.72;10167549;28;20356;-75
2021/04/22 16:33:32;;;;;;;6.05;2.85;;;;;;;16.51;29.22;101207.78;10124158;28;20235;-75
2021/04/22 16:38:35;;;;;;;5.13;3.17;;;;;;;16.42;28.88;101205.94;10125987;28;20244;-75
2021/04/22 16:43:37;;;;;;;6.03;2.78;;;;;;;16.07;29.85;101216.31;10127762;28;20285;-74
2021/04/22 16:48:41;;;;;;;6.32;3.15;;;;;;;16.18;30.31;101217.16;10108210;28;20733;-75
2021/04/22 16:53:44;;;;;;;6.13;2.95;;;;;;;16.34;30.13;101212.94;10126123;28;21582;-74
2021/04/22 16:58:47;;;;;;;6.28;3.63;;;;;;;16.33;30.34;101205.81;10140343;28;20263;-74
2021/04/22 17:04:05;;;;;;;5.07;2.80;;;;;;;16.23;30.30;101213.03;10144630;28;20248;-75
2021/04/22 17:09:16;;;;;;;9.60;3.45;;;;;;;15.46;30.97;101232.66;10142996;28;20305;-75
2021/04/22 17:14:20;;;;;;;6.95;3.13;;;;;;;13.78;33.61;101236.94;10138191;28;20237;-75
2021/04/22 17:19:23;;;;;;;6.63;2.70;;;;;;;12.99;34.43;101245.81;10182656;28;20239;-75
2021/04/22 17:24:26;;;;;;;4.63;2.53;;;;;;;14.24;33.47;101236.72;10176383;28;20228;-73
2021/04/22 17:29:29;;;;;;;5.60;3.63;;;;;;;16.10;30.88;101231.44;10125316;28;20244;-74
2021/04/22 17:34:33;;;;;;;7.05;3.15;;;;;;;15.66;31.12;101228.16;10139220;28;20598;-75
2021/04/22 17:39:35;;;;;;;7.78;3.55;;;;;;;13.69;34.19;101242.13;10161156;28;20371;-74
2021/04/22 17:44:38;;;;;;;9.77;2.85;;;;;;;12.45;36.41;101243.69;10147313;28;20743;-73
2021/04/22 17:49:41;;;;;;;7.03;3.17;;;;;;;12.00;37.98;101240.72;10149423;28;20733;-74
2021/04/22 17:54:45;;;;;;;7.47;2.90;;;;;;;11.72;38.27;101245.41;10139809;28;20227;-76
2021/04/22 17:59:47;;;;;;;9.68;3.47;;;;;;;11.13;39.89;101263.09;10145893;28;20235;-75
2021/04/22 18:04:51;;;;;;;6.85;3.20;;;;;;;10.63;41.25;101262.88;10134168;28;20240;-74
2021/04/22 18:09:53;;;;;;;6.38;3.10;;;;;;;10.38;40.73;101274.41;10134466;28;20698;-74
2021/04/22 18:14:55;;;;;;;9.43;3.40;;;;;;;10.16;41.34;101277.66;10131039;28;20247;-74
2021/04/22 18:19:58;;;;;;;9.68;3.03;;;;;;;9.72;41.94;101276.81;10137082;28;20262;-75
2021/04/22 18:25:03;;;;;;;5.65;3.35;;;;;;;9.56;42.46;101276.06;10154878;28;20224;-75
2021/04/22 18:30:09;;;;;;;9.70;3.30;;;;;;;9.33;42.73;101287.38;10138301;28;20266;-75
2021/04/22 18:35:17;;;;;;;8.55;3.20;;;;;;;9.13;43.37;101304.66;10159904;28;21384;-75
2021/04/22 18:40:22;;;;;;;13.93;3.55;;;;;;;9.09;43.76;101305.81;10139879;28;20265;-74
2021/04/22 18:45:26;;;;;;;9.93;3.42;;;;;;;9.00;44.21;101305.41;10145022;28;20640;-74
2021/04/22 18:50:31;;;;;;;5.68;2.95;;;;;;;8.89;45.33;101323.09;10146914;28;20817;-75
2021/04/22 18:55:35;;;;;;;8.07;3.55;;;;;;;8.91;44.84;101329.19;10144003;28;20262;-76
2021/04/22 19:00:40;;;;;;;11.27;3.70;;;;;;;8.83;45.38;101332.31;10146006;28;20886;-75
2021/04/22 19:05:44;;;;;;;7.28;3.45;;;;;;;8.76;45.72;101323.78;10148248;28;20236;-72
2021/04/22 19:10:47;;;;;;;8.55;3.63;;;;;;;8.57;46.54;101325.81;10136309;28;20239;-72
2021/04/22 19:15:53;;;;;;;8.10;3.50;;;;;;;8.47;46.75;101336.19;10179636;28;20319;-73
2021/04/22 19:20:57;;;;;;;7.55;3.08;;;;;;;8.39;46.86;101351.78;10146202;28;21992;-73
2021/04/22 19:25:59;;;;;;;10.88;3.50;;;;;;;8.30;47.20;101357.66;10144125;28;20766;-75
2021/04/22 19:31:02;;;;;;;6.60;3.50;;;;;;;8.07;47.50;101348.25;10149669;28;20251;-73
2021/04/22 19:36:06;;;;;;;6.15;3.20;;;;;;;7.94;48.19;101351.59;10149023;28;20228;-73
2021/04/22 19:41:15;;;;;;;8.02;3.35;;;;;;;7.87;47.51;101368.94;10153161;28;20243;-74
2021/04/22 19:46:18;;;;;;;11.90;3.65;;;;;;;7.85;47.89;101373.50;10166977;28;20317;-75
2021/04/22 19:51:21;;;;;;;13.73;5.03;;;;;;;7.73;48.19;101380.38;10150956;28;20721;-73
2021/04/22 19:56:25;;;;;;;7.72;3.60;;;;;;;7.69;48.67;101385.97;10149132;28;20232;-74
2021/04/22 20:01:28;;;;;;;7.40;3.40;;;;;;;7.59;48.41;101382.91;10143427;28;20240;-74
2021/04/22 20:06:32;;;;;;;6.30;3.40;;;;;;;7.27;48.84;101371.25;10145062;28;20244;-74
2021/04/22 20:11:34;;;;;;;10.65;3.80;;;;;;;7.23;49.54;101388.34;10149292;28;20633;-74
2021/04/22 20:16:37;;;;;;;9.55;4.00;;;;;;;7.20;49.73;101389.38;10173054;28;20710;-74
2021/04/22 20:21:40;;;;;;;7.47;3.70;;;;;;;7.00;50.34;101392.22;10195860;28;20235;-73
2021/04/22 20:26:45;;;;;;;9.05;3.47;;;;;;;6.82;50.82;101391.25;10188030;28;21440;-74
2021/04/22 20:31:50;;;;;;;9.43;3.30;;;;;;;6.56;51.94;101401.41;10188048;28;20312;-74
2021/04/22 20:36:58;;;;;;;6.13;3.38;;;;;;;6.41;52.50;101391.47;10186440;28;20241;-73
2021/04/22 20:42:01;;;;;;;8.43;3.10;;;;;;;6.22;52.82;101395.94;10163341;28;20235;-75
2021/04/22 20:47:04;;;;;;;7.15;3.67;;;;;;;6.30;52.98;101394.63;10149691;28;20776;-74
2021/04/22 20:52:07;;;;;;;8.73;3.65;;;;;;;6.21;53.22;101402.22;10146463;28;20809;-73
2021/04/22 20:57:10;;;;;;;8.77;4.05;;;;;;;6.05;53.72;101404.72;10129853;28;20247;-73
2021/04/22 21:02:12;;;;;;;8.38;4.20;;;;;;;5.83;54.30;101394.19;10142021;28;20249;-75
2021/04/22 21:07:15;;;;;;;10.15;3.50;;;;;;;5.66;54.85;101390.47;10110668;28;20266;-75
2021/04/22 21:12:20;;;;;;;10.18;4.20;;;;;;;5.76;54.45;101395.38;10148787;28;20751;-75
2021/04/22 21:17:22;;;;;;;6.35;3.65;;;;;;;5.70;54.85;101394.75;10211564;28;20241;-74
2021/04/22 21:22:25;;;;;;;8.90;3.78;;;;;;;5.70;54.14;101399.19;10225115;28;20295;-73
2021/04/22 21:27:28;;;;;;;8.70;4.03;;;;;;;5.63;54.41;101384.41;10226657;28;20286;-75
2021/04/22 21:32:31;;;;;;;5.53;3.60;;;;;;;5.60;54.61;101400.53;10226114;28;20718;-74
2021/04/22 21:37:34;;;;;;;5.55;3.58;;;;;;;5.55;54.74;101403.41;10226198;28;20255;-75
2021/04/22 21:42:36;;;;;;;5.38;3.63;;;;;;;5.47;54.76;101416.19;10230109;28;20597;-75
2021/04/22 21:47:39;;;;;;;12.93;4.07;;;;;;;5.44;54.80;101413.66;10236008;28;20634;-75
2021/04/22 21:52:44;;;;;;;8.40;3.97;;;;;;;5.08;55.89;101405.44;10227300;28;20242;-74
2021/04/22 21:57:46;;;;;;;9.60;4.30;;;;;;;4.93;56.66;101410.44;10227758;28;20266;-75
2021/04/22 22:02:49;;;;;;;8.07;4.43;;;;;;;4.77;57.03;101417.31;10227403;28;20261;-74
2021/04/22 22:07:53;;;;;;;8.13;4.22;;;;;;;4.68;57.95;101431.00;10223068;28;20833;-74
2021/04/22 22:12:55;;;;;;;12.45;4.93;;;;;;;4.51;58.15;101426.34;10147203;28;20269;-73
2021/04/22 22:17:58;;;;;;;12.75;4.68;;;;;;;4.25;58.85;101422.91;10184239;28;20720;-73
2021/04/22 22:23:01;;;;;;;11.88;4.00;;;;;;;4.51;58.01;101429.88;10184228;28;20242;-72
2021/04/22 22:28:04;;;;;;;9.82;4.22;;;;;;;4.52;58.29;101428.06;10182203;28;20235;-73
2021/04/22 22:33:11;;;;;;;6.03;3.83;;;;;;;4.50;58.04;101438.78;10184308;28;20244;-74
2021/04/22 22:38:16;;;;;;;11.57;4.32;;;;;;;4.48;58.19;101434.44;10184011;28;20247;-73
2021/04/22 22:43:18;;;;;;;8.40;4.22;;;;;;;4.27;58.65;101433.47;10181949;28;20248;-75
2021/04/22 22:48:20;;;;;;;9.80;4.30;;;;;;;4.16;58.89;101442.72;10185462;28;20290;-73
2021/04/22 22:53:25;;;;;;;13.35;4.45;;;;;;;4.21;59.02;101447.00;10183425;28;20253;-72
2021/04/22 22:58:30;;;;;;;10.27;4.88;;;;;;;4.30;58.31;101450.16;10189561;28;20242;-73
2021/04/22 23:03:32;;;;;;;10.50;4.20;;;;;;;4.25;58.51;101454.81;10188993;28;20595;-73
2021/04/22 23:08:36;;;;;;;7.80;4.05;;;;;;;4.22;58.51;101446.94;10186526;28;20256;-75
2021/04/22 23:13:39;;;;;;;13.98;4.78;;;;;;;4.13;58.99;101449.94;10182279;28;20237;-75
2021/04/22 23:18:41;;;;;;;12.38;5.18;;;;;;;4.02;58.98;101444.16;10145744;28;21525;-74